Time;durP1;ratioP1;P1;durP2;ratioP2;P2;SDS_P1;SDS_P2;PMS_P1;PMS_P2;Temp;Humidity;BMP_temperature;BMP_pressure;BME280_temperature;BME280_humidity;BME280_pressure;Samples;Min_cycle;Max_cycle;Signal;HPM_P1;HPM_P2
2021/04/12 00:00:22;;;;;;;17.10;13.15;;;;;;;7.79;65.59;98855.06;113162;1203;64451;-79
2021/04/12 00:03:31;;;;;;;17.05;13.35;;;;;;;7.77;66.14;98867.58;113212;1203;64561;-79
2021/04/12 00:06:12;;;;;;;20.85;14.30;;;;;;;7.81;66.10;98866.44;113202;1203;64388;-79
2021/04/12 00:08:46;;;;;;;16.27;12.83;;;;;;;7.83;66.46;98864.56;113106;1203;64359;-79
2021/04/12 00:11:37;;;;;;;20.80;13.90;;;;;;;7.80;66.49;98848.83;113104;1203;64327;-79
2021/04/12 00:14:33;;;;;;;17.20;14.30;;;;;;;7.79;66.71;98852.41;113099;1203;64359;-79
2021/04/12 00:17:13;;;;;;;20.05;14.90;;;;;;;7.77;66.98;98858.77;113097;1203;64576;-79
2021/04/12 00:19:44;;;;;;;;;;;;;;;7.73;67.03;98862.53;113178;1211;64503;-79
2021/04/12 00:22:31;;;;;;;21.80;17.20;;;;;;;7.70;67.29;98852.95;113127;1203;64643;-79
2021/04/12 00:25:18;;;;;;;24.20;19.15;;;;;;;7.61;67.24;98853.46;113094;1203;64366;-79
2021/04/12 00:27:58;;;;;;;22.77;19.83;;;;;;;7.51;67.42;98857.61;113119;1203;64419;-79
2021/04/12 00:30:45;;;;;;;24.27;21.00;;;;;;;7.45;67.78;98850.83;113074;1203;64400;-79
2021/04/12 00:33:23;;;;;;;24.40;20.75;;;;;;;7.37;67.85;98853.94;113303;1203;64384;-79
2021/04/12 00:35:59;;;;;;;23.60;18.40;;;;;;;7.31;68.06;98853.41;113362;1203;64390;-79
2021/04/12 00:38:43;;;;;;;24.80;16.70;;;;;;;7.30;68.73;98855.22;113429;1203;64404;-80
2021/04/12 00:41:47;;;;;;;24.75;17.95;;;;;;;7.33;69.10;98859.49;113498;1203;64554;-80
2021/04/12 00:44:41;;;;;;;22.80;17.55;;;;;;;7.37;69.44;98847.75;113290;1203;64840;-80
2021/04/12 00:47:28;;;;;;;24.80;18.67;;;;;;;7.43;69.55;98845.63;113194;1203;64427;-80
2021/04/12 00:50:31;;;;;;;23.90;18.60;;;;;;;7.44;69.40;98847.33;113164;1203;64371;-79
2021/04/12 00:53:20;;;;;;;25.10;19.00;;;;;;;7.42;69.51;98848.35;113215;1203;64391;-80
2021/04/12 00:55:49;;;;;;;24.20;20.00;;;;;;;7.39;69.78;98848.53;113183;1203;64491;-80
2021/04/12 00:58:54;;;;;;;25.05;19.40;;;;;;;7.36;69.89;98852.21;113254;1203;64406;-80
2021/04/12 01:01:44;;;;;;;26.10;19.10;;;;;;;7.35;69.89;98849.66;113141;1203;64589;-79
2021/04/12 01:04:30;;;;;;;23.70;19.70;;;;;;;7.31;69.84;98843.66;113350;1203;64458;-83
2021/04/12 01:07:24;;;;;;;23.27;17.70;;;;;;;7.30;70.16;98843.77;113454;1203;64381;-81
2021/04/12 01:10:09;;;;;;;21.40;18.90;;;;;;;7.31;70.32;98841.01;113342;1203;64419;-82
2021/04/12 01:13:18;;;;;;;26.55;19.85;;;;;;;7.30;70.54;98839.31;113530;1203;64426;-80
2021/04/12 01:16:19;;;;;;;25.00;19.90;;;;;;;7.26;70.62;98832.45;113272;1203;64506;-79
2021/04/12 01:19:05;;;;;;;24.90;20.67;;;;;;;7.20;70.41;98828.36;113372;1203;64417;-80
2021/04/12 01:21:50;;;;;;;25.13;21.20;;;;;;;7.13;70.33;98836.73;113277;1203;64378;-84
2021/04/12 01:24:39;;;;;;;27.00;22.10;;;;;;;7.05;70.89;98834.50;113175;1203;64474;-80
2021/04/12 01:27:51;;;;;;;25.63;21.73;;;;;;;6.99;70.96;98840.15;113178;1203;64368;-79
2021/04/12 01:30:56;;;;;;;24.70;20.07;;;;;;;6.92;71.19;98834.31;113223;1203;64384;-80
2021/04/12 01:33:47;;;;;;;25.17;20.77;;;;;;;6.96;71.57;98840.32;113176;1203;64393;-80
2021/04/12 01:36:23;;;;;;;27.85;22.95;;;;;;;6.99;72.06;98841.00;113188;1203;64413;-80
2021/04/12 01:38:58;;;;;;;25.10;22.10;;;;;;;7.01;72.02;98835.63;113196;1203;64525;-80
2021/04/12 01:41:33;;;;;;;27.40;22.47;;;;;;;7.01;72.28;98838.28;113388;1203;64521;-80
2021/04/12 01:44:27;;;;;;;30.37;22.53;;;;;;;6.99;72.55;98833.05;113238;1203;64393;-80
2021/04/12 01:47:12;;;;;;;24.60;22.00;;;;;;;6.94;71.89;98832.45;113413;1203;64384;-80
2021/04/12 01:50:18;;;;;;;24.55;21.70;;;;;;;6.90;71.94;98830.03;113332;1203;64388;-80
2021/04/12 01:53:17;;;;;;;23.45;20.50;;;;;;;6.85;72.08;98834.77;113316;1203;64487;-80
2021/04/12 01:55:43;;;;;;;24.15;20.05;;;;;;;6.79;72.02;98828.86;113454;1203;64433;-80
2021/04/12 01:58:56;;;;;;;26.00;21.25;;;;;;;6.80;72.29;98838.50;113459;1203;64416;-80
2021/04/12 02:01:44;;;;;;;23.77;21.17;;;;;;;6.77;72.21;98829.88;113421;1203;64458;-79
2021/04/12 02:04:20;;;;;;;27.00;22.85;;;;;;;6.70;72.39;98828.48;113444;1203;64346;-80
2021/04/12 02:07:25;;;;;;;28.33;24.37;;;;;;;6.64;72.23;98832.33;113217;1203;64417;-81
2021/04/12 02:10:29;;;;;;;28.73;23.90;;;;;;;6.57;72.48;98825.64;113220;1203;64541;-80
2021/04/12 02:13:29;;;;;;;27.30;24.35;;;;;;;6.51;72.57;98818.88;113219;1203;64361;-80
2021/04/12 02:16:23;;;;;;;24.75;21.35;;;;;;;6.49;72.62;98820.75;113230;1203;64420;-80
2021/04/12 02:19:25;;;;;;;27.45;22.70;;;;;;;6.51;72.81;98825.97;113466;1203;64491;-79
2021/04/12 02:22:29;;;;;;;30.40;23.60;;;;;;;6.52;73.08;98825.03;113227;1203;64496;-79
2021/04/12 02:25:12;;;;;;;29.00;23.50;;;;;;;6.51;73.57;98810.94;113275;1203;64400;-80
2021/04/12 02:28:13;;;;;;;27.90;24.53;;;;;;;6.49;73.32;98820.75;113278;1203;64366;-80
2021/04/12 02:31:21;;;;;;;27.60;23.95;;;;;;;6.46;73.44;98812.13;113459;1203;64371;-79
2021/04/12 02:34:02;;;;;;;29.75;24.50;;;;;;;6.41;73.07;98815.01;113423;1203;64420;-79
2021/04/12 02:36:47;;;;;;;27.23;21.40;;;;;;;6.38;73.48;98810.73;113192;1203;64442;-79
2021/04/12 02:39:30;;;;;;;25.90;21.83;;;;;;;6.38;73.46;98812.53;113207;1203;64458;-80
2021/04/12 02:42:18;;;;;;;25.20;21.10;;;;;;;6.41;73.65;98814.16;113312;1203;64397;-81
2021/04/12 02:45:00;;;;;;;26.90;21.70;;;;;;;6.40;73.68;98812.42;113446;1203;64391;-79
2021/04/12 02:48:13;;;;;;;29.70;23.85;;;;;;;6.37;73.36;98811.67;113229;1203;64388;-79
2021/04/12 02:51:08;;;;;;;28.25;23.85;;;;;;;6.33;73.64;98812.77;113417;1203;64519;-80
2021/04/12 02:54:00;;;;;;;31.00;24.40;;;;;;;6.33;73.40;98814.56;113466;1203;64473;-80
2021/04/12 02:56:59;;;;;;;27.95;22.00;;;;;;;6.28;73.38;98809.50;113239;1203;64416;-80
2021/04/12 03:00:03;;;;;;;26.60;20.90;;;;;;;6.24;73.29;98807.09;113475;1203;64384;-80
2021/04/12 03:02:57;;;;;;;24.47;20.57;;;;;;;6.21;73.38;98808.09;113446;1203;64401;-80
2021/04/12 03:05:32;;;;;;;24.80;21.27;;;;;;;6.21;73.44;98810.75;113444;1203;64468;-80
2021/04/12 03:08:21;;;;;;;29.30;23.30;;;;;;;6.21;73.64;98815.19;113477;1203;64438;-80
2021/04/12 03:11:26;;;;;;;32.50;24.65;;;;;;;6.21;73.65;98813.39;113461;1203;64423;-80
2021/04/12 03:14:23;;;;;;;31.40;24.80;;;;;;;6.19;73.69;98814.41;113432;1203;64423;-80
2021/04/12 03:17:14;;;;;;;29.93;26.60;;;;;;;6.19;73.72;98820.58;113451;1203;64356;-80
2021/04/12 03:19:59;;;;;;;29.13;24.80;;;;;;;6.17;73.39;98818.95;113337;1203;64337;-80
2021/04/12 03:23:01;;;;;;;31.65;26.45;;;;;;;6.12;73.48;98811.23;113363;1203;64397;-81
2021/04/12 03:25:53;;;;;;;30.90;26.30;;;;;;;6.08;73.67;98812.31;113459;1203;64397;-79
2021/04/12 03:28:31;;;;;;;29.70;25.50;;;;;;;6.09;73.61;98811.41;113433;1203;64346;-78
2021/04/12 03:31:06;;;;;;;29.30;22.37;;;;;;;6.10;73.59;98813.10;113386;1203;64378;-79
2021/04/12 03:34:07;;;;;;;28.00;20.90;;;;;;;6.12;73.81;98801.50;113346;1203;64419;-81
2021/04/12 03:37:11;;;;;;;27.20;21.80;;;;;;;6.12;73.81;98804.15;113098;1203;64429;-80
2021/04/12 03:39:57;;;;;;;26.60;20.75;;;;;;;6.11;73.64;98804.25;113330;1203;64481;-80
2021/04/12 03:42:37;;;;;;;26.53;20.77;;;;;;;6.05;73.56;98808.04;113350;1203;64427;-81
2021/04/12 03:45:19;;;;;;;26.17;19.03;;;;;;;6.06;73.65;98808.92;113338;1203;64359;-81
2021/04/12 03:47:51;;;;;;;25.95;19.45;;;;;;;6.09;73.58;98809.61;113493;1203;64471;-80
2021/04/12 03:50:37;;;;;;;27.60;19.80;;;;;;;6.10;74.26;98811.30;113405;1203;64385;-79
2021/04/12 03:53:19;;;;;;;29.65;19.65;;;;;;;6.13;73.99;98807.64;113356;1203;64385;-82
2021/04/12 03:56:04;;;;;;;28.23;20.43;;;;;;;6.15;73.86;98811.08;113468;1203;64397;-82
2021/04/12 03:59:01;;;;;;;29.60;20.80;;;;;;;6.13;73.63;98813.81;113303;1203;64417;-81
2021/04/12 04:01:49;;;;;;;26.90;19.75;;;;;;;6.11;73.58;98813.03;113441;1203;64455;-80
2021/04/12 04:04:46;;;;;;;24.40;18.35;;;;;;;6.11;73.76;98807.74;113423;1203;64452;-80
2021/04/12 04:07:34;;;;;;;24.30;18.65;;;;;;;6.14;73.51;98812.88;113322;1203;64400;-82
2021/04/12 04:10:15;;;;;;;21.45;17.95;;;;;;;6.15;73.43;98814.57;113261;1203;64381;-79
2021/04/12 04:13:00;;;;;;;25.30;18.70;;;;;;;6.19;73.54;98809.11;113130;1203;64330;-80
2021/04/12 04:15:36;;;;;;;25.80;20.10;;;;;;;6.24;73.44;98820.31;113076;1203;64349;-80
2021/04/12 04:18:28;;;;;;;30.85;25.40;;;;;;;6.59;72.92;98815.83;113093;1201;64391;-79
2021/04/12 04:21:39;;;;;;;29.15;26.10;;;;;;;7.19;72.25;98813.41;113287;1203;64375;-80
2021/04/12 04:24:21;;;;;;;29.10;23.00;;;;;;;7.79;71.07;98817.07;113432;1200;64388;-80
2021/04/12 04:27:04;;;;;;;23.55;21.05;;;;;;;8.25;70.31;98812.55;113433;1203;64362;-79
2021/04/12 04:29:55;;;;;;;23.80;20.20;;;;;;;8.73;69.67;98809.66;113326;1203;64388;-80
2021/04/12 04:32:34;;;;;;;28.90;19.80;;;;;;;9.15;68.91;98814.06;113456;1203;64490;-80
2021/04/12 04:35:15;;;;;;;23.97;21.07;;;;;;;9.58;68.16;98807.77;113145;1203;64403;-80
2021/04/12 04:38:26;;;;;;;21.80;19.40;;;;;;;10.06;67.56;98805.47;113450;1203;64391;-80
2021/04/12 04:41:21;;;;;;;24.40;21.40;;;;;;;10.55;66.44;98818.08;113253;1203;64392;-80
2021/04/12 04:44:17;;;;;;;24.80;20.30;;;;;;;10.93;65.51;98817.22;113160;1203;64365;-80
2021/04/12 04:47:09;;;;;;;26.07;21.33;;;;;;;11.26;64.85;98811.25;113368;1203;64412;-85
2021/04/12 04:50:02;;;;;;;28.00;21.20;;;;;;;11.54;64.34;98807.42;113166;1203;64340;-80
2021/04/12 04:53:06;;;;;;;24.15;21.20;;;;;;;11.67;63.43;98809.19;113145;1203;64390;-80
2021/04/12 04:55:56;;;;;;;24.83;19.03;;;;;;;11.70;62.71;98811.63;113413;1203;64494;-78
2021/04/12 04:59:07;;;;;;;24.77;20.13;;;;;;;11.84;62.76;98820.28;113134;1203;64394;-81
2021/04/12 05:02:09;;;;;;;23.67;18.47;;;;;;;12.04;62.31;98826.00;113446;1203;64529;-80
2021/04/12 05:04:57;;;;;;;23.25;18.20;;;;;;;12.45;61.55;98813.94;113464;1203;64378;-80
2021/04/12 05:07:42;;;;;;;26.00;21.40;;;;;;;12.84;60.99;98819.82;113259;1203;64876;-80
2021/04/12 05:10:47;;;;;;;26.80;19.40;;;;;;;13.12;60.32;98815.80;113228;1203;64397;-80
2021/04/12 05:13:28;;;;;;;20.13;17.90;;;;;;;13.43;59.73;98816.02;113182;1203;64407;-80
2021/04/12 05:16:17;;;;;;;24.35;18.35;;;;;;;13.68;59.27;98821.06;113147;1203;64477;-80
2021/04/12 05:19:06;;;;;;;24.67;18.37;;;;;;;13.93;58.92;98819.89;113152;1203;64423;-81
2021/04/12 05:22:03;;;;;;;24.85;19.00;;;;;;;14.22;58.35;98819.27;113202;1203;64419;-80
2021/04/12 05:24:51;;;;;;;25.33;22.27;;;;;;;14.40;57.65;98823.07;113140;1203;64512;-80
2021/04/12 06:16:17;;;;;;;18.90;13.20;;;;;;;16.23;52.72;98831.84;113288;1203;64825;-82
2021/04/12 06:19:02;;;;;;;15.90;13.10;;;;;;;16.38;52.29;98832.27;113257;1203;64394;-82
2021/04/12 06:21:52;;;;;;;16.50;11.97;;;;;;;16.48;52.22;98834.92;113369;1203;64368;-81
2021/04/12 06:24:37;;;;;;;14.47;11.63;;;;;;;16.53;51.47;98838.03;113331;1203;64369;-81
2021/04/12 06:27:06;;;;;;;13.67;11.40;;;;;;;16.43;51.58;98838.06;113448;1203;64388;-82
2021/04/12 06:29:42;;;;;;;16.58;11.43;;;;;;;16.40;50.89;98843.74;113401;1203;64500;-81
2021/04/12 06:32:37;;;;;;;12.20;10.05;;;;;;;16.28;51.16;98844.03;113490;1203;64429;-81
2021/04/12 06:35:23;;;;;;;16.75;10.65;;;;;;;16.32;51.24;98838.20;113373;1203;64474;-81
2021/04/12 06:38:13;;;;;;;12.40;10.15;;;;;;;16.34;50.95;98841.60;113286;1203;64337;-80
2021/04/12 06:41:17;;;;;;;13.77;9.73;;;;;;;16.28;50.94;98847.56;113535;1203;64432;-80
2021/04/12 06:44:02;;;;;;;11.70;9.60;;;;;;;15.95;51.26;98841.60;113400;1203;64432;-83
2021/04/12 06:47:06;;;;;;;12.70;8.65;;;;;;;15.69;51.64;98849.38;113314;1203;64323;-83
2021/04/12 06:49:47;;;;;;;11.80;9.10;;;;;;;15.46;51.60;98859.47;113532;1203;64430;-81
2021/04/12 06:52:43;;;;;;;11.90;9.00;;;;;;;15.26;51.66;98852.33;113379;1203;64474;-85
2021/04/12 06:55:19;;;;;;;10.37;8.37;;;;;;;15.08;52.04;98849.42;113241;1203;64381;-84
2021/04/12 06:57:52;;;;;;;13.00;9.00;;;;;;;15.02;52.57;98855.34;113236;1203;64365;-82
2021/04/12 07:00:43;;;;;;;14.35;8.65;;;;;;;14.99;52.43;98848.41;113184;1203;64388;-80
2021/04/12 07:03:33;;;;;;;10.90;9.80;;;;;;;14.98;52.40;98849.41;113222;1203;64372;-80
2021/04/12 07:06:16;;;;;;;11.85;8.25;;;;;;;15.00;52.67;98852.77;113412;1203;64513;-81
2021/04/12 07:09:13;;;;;;;11.20;8.00;;;;;;;15.11;52.61;98847.34;113492;1203;64413;-82
2021/04/12 07:12:18;;;;;;;11.00;7.10;;;;;;;15.20;51.81;98845.67;113427;1203;64369;-81
2021/04/12 07:15:13;;;;;;;11.05;8.25;;;;;;;15.29;52.28;98849.36;113178;1203;64346;-81
2021/04/12 07:18:18;;;;;;;12.95;8.05;;;;;;;15.41;51.69;98853.66;113171;1201;64378;-81
2021/04/12 07:21:03;;;;;;;;;;;;;;;15.37;51.91;98861.11;113186;1203;64921;-81
2021/04/12 07:24:00;;;;;;;10.55;7.75;;;;;;;15.51;51.52;98859.06;113199;1203;64513;-81
2021/04/12 07:26:49;;;;;;;10.80;7.85;;;;;;;15.77;51.57;98862.09;113203;1203;64420;-82
2021/04/12 07:29:41;;;;;;;11.53;7.57;;;;;;;16.07;51.26;98860.30;113456;1203;64393;-81
2021/04/12 07:32:13;;;;;;;11.50;9.30;;;;;;;16.40;51.11;98859.00;113450;1203;64500;-80
2021/04/12 07:35:02;;;;;;;12.83;10.20;;;;;;;16.70;50.49;98859.83;113224;1203;64492;-81
2021/04/12 07:38:00;;;;;;;12.50;10.00;;;;;;;16.92;50.07;98853.28;113389;1203;64324;-81
2021/04/12 07:40:47;;;;;;;11.00;8.90;;;;;;;17.01;49.74;98857.77;113414;1203;64394;-81
2021/04/12 07:43:42;;;;;;;10.30;9.10;;;;;;;17.07;49.53;98849.97;113426;1203;64427;-80
2021/04/12 07:46:47;;;;;;;10.70;8.00;;;;;;;17.23;49.50;98854.72;113305;1203;64430;-80
2021/04/12 07:49:38;;;;;;;11.60;7.00;;;;;;;17.36;48.52;98859.77;113153;1203;64423;-81
2021/04/12 07:52:43;;;;;;;8.90;6.70;;;;;;;17.59;48.81;98854.83;113231;1203;64413;-81
2021/04/12 07:55:22;;;;;;;9.80;6.40;;;;;;;17.77;47.75;98853.02;113202;1203;64385;-81
2021/04/12 07:58:05;;;;;;;11.40;7.70;;;;;;;17.76;46.65;98854.00;113328;1203;64502;-81
2021/04/12 08:01:23;;;;;;;9.00;5.70;;;;;;;17.82;46.65;98854.42;113449;1203;64478;-81
2021/04/12 08:04:18;;;;;;;5.60;4.73;;;;;;;18.00;45.72;98857.98;113133;1203;64311;-80
2021/04/12 08:07:15;;;;;;;5.87;4.53;;;;;;;17.99;44.57;98865.23;113448;1203;64333;-81
2021/04/12 08:10:10;;;;;;;6.65;4.45;;;;;;;17.84;43.96;98861.36;113437;1203;64423;-82
2021/04/12 08:13:14;;;;;;;4.90;4.10;;;;;;;17.92;45.17;98860.60;113470;1203;64435;-82
2021/04/12 08:15:47;;;;;;;5.30;4.10;;;;;;;18.10;45.39;98866.01;113454;1203;64425;-81
2021/04/12 08:18:32;;;;;;;6.20;4.10;;;;;;;18.27;45.14;98875.09;113374;1203;64439;-81
2021/04/12 08:21:30;;;;;;;10.00;4.70;;;;;;;18.35;45.49;98877.86;113330;1203;64397;-81
2021/04/12 08:24:21;;;;;;;6.95;5.60;;;;;;;18.16;44.18;98874.31;113210;1203;64391;-80
2021/04/12 08:27:11;;;;;;;6.45;4.60;;;;;;;18.01;44.57;98883.97;113349;1203;64390;-81
2021/04/12 08:29:59;;;;;;;6.30;4.33;;;;;;;18.05;44.08;98889.89;113383;1203;64410;-82
2021/04/12 08:32:51;;;;;;;7.05;4.00;;;;;;;17.97;42.89;98883.41;113454;1203;64407;-82
2021/04/12 08:35:32;;;;;;;5.35;4.00;;;;;;;17.85;43.93;98887.34;113461;1203;64468;-82
2021/04/12 08:38:33;;;;;;;9.10;4.90;;;;;;;17.86;44.49;98886.33;113375;1203;64317;-81
2021/04/12 08:41:35;;;;;;;6.30;4.47;;;;;;;17.87;44.31;98887.17;113427;1203;64330;-83
2021/04/12 08:44:20;;;;;;;5.80;4.65;;;;;;;17.84;43.85;98887.48;113423;1203;64378;-83
2021/04/12 08:47:18;;;;;;;7.40;5.00;;;;;;;17.87;44.32;98885.31;113345;1203;64417;-82
2021/04/12 08:50:03;;;;;;;5.35;4.30;;;;;;;17.91;44.60;98886.72;113285;1203;64417;-81
2021/04/12 08:53:04;;;;;;;6.45;5.10;;;;;;;17.97;44.02;98887.95;113493;1203;64343;-80
2021/04/12 08:55:55;;;;;;;8.90;4.85;;;;;;;18.02;43.96;98888.34;113478;1203;64372;-80
2021/04/12 08:58:54;;;;;;;7.40;4.90;;;;;;;18.00;44.19;98884.95;113414;1203;64436;-81
2021/04/12 09:01:49;;;;;;;7.13;5.27;;;;;;;18.04;43.81;98882.81;113575;1203;64522;-81
2021/04/12 09:04:50;;;;;;;8.40;5.43;;;;;;;18.14;44.54;98881.73;113234;1203;64525;-82
2021/04/12 09:07:36;;;;;;;8.00;6.10;;;;;;;18.32;44.09;98884.41;113149;1203;64388;-81
2021/04/12 09:10:23;;;;;;;7.60;5.30;;;;;;;18.39;43.53;98873.86;113095;1203;64717;-80
2021/04/12 09:13:27;;;;;;;11.05;5.95;;;;;;;18.42;43.83;98881.64;113172;1203;64317;-81
2021/04/12 09:16:12;;;;;;;8.05;6.30;;;;;;;18.45;43.45;98881.33;113180;1203;64487;-81
2021/04/12 09:18:59;;;;;;;8.77;5.30;;;;;;;18.50;43.37;98881.70;113236;1203;64525;-80
2021/04/12 09:21:50;;;;;;;8.15;5.30;;;;;;;18.66;43.08;98886.39;113166;1203;64420;-81
2021/04/12 09:24:37;;;;;;;6.45;4.70;;;;;;;18.66;43.27;98889.08;113392;1203;64391;-81
2021/04/12 09:27:38;;;;;;;7.50;4.50;;;;;;;18.59;42.57;98880.78;113349;1203;64388;-81
2021/04/12 09:30:48;;;;;;;7.40;4.40;;;;;;;18.36;42.62;98895.77;113340;1203;64375;-83
2021/04/12 09:33:46;;;;;;;8.75;4.00;;;;;;;18.19;43.42;98892.05;113436;1203;64321;-84
2021/04/12 09:36:12;;;;;;;5.10;4.20;;;;;;;18.14;43.78;98883.56;113384;1203;64496;-83
2021/04/12 09:38:54;;;;;;;11.53;7.67;;;;;;;18.10;43.99;98887.58;113464;1203;64407;-82
2021/04/12 09:41:23;;;;;;;7.50;5.00;;;;;;;18.09;43.84;98886.74;113339;1203;64803;-82
2021/04/12 09:43:53;;;;;;;5.50;4.00;;;;;;;18.21;43.62;98895.44;113331;1203;64391;-80
2021/04/12 09:46:28;;;;;;;;;;;;;;;18.33;43.98;98890.68;113439;1210;64449;-81
2021/04/12 09:49:32;;;;;;;7.50;4.00;;;;;;;18.37;43.47;98886.66;113217;1203;64337;-81
2021/04/12 09:52:35;;;;;;;6.50;4.00;;;;;;;18.37;43.41;98890.19;113236;1203;64379;-81
2021/04/12 09:55:32;;;;;;;5.35;3.80;;;;;;;18.43;43.33;98889.59;113312;1203;64426;-80
2021/04/12 09:58:33;;;;;;;7.15;4.10;;;;;;;18.47;43.38;98887.42;113423;1203;64528;-80
2021/04/12 10:01:42;;;;;;;6.05;3.55;;;;;;;18.52;43.14;98889.66;113680;1203;64468;-80
2021/04/12 10:04:46;;;;;;;5.77;3.90;;;;;;;18.52;42.77;98886.96;113699;1203;64608;-80
2021/04/12 10:07:34;;;;;;;7.60;3.80;;;;;;;18.59;42.90;98894.28;113612;1203;64327;-80
2021/04/12 10:10:10;;;;;;;5.45;3.90;;;;;;;18.67;42.96;98889.92;113356;1203;64365;-80
2021/04/12 10:12:46;;;;;;;5.60;3.70;;;;;;;18.74;42.30;98880.20;113189;1203;64395;-80
2021/04/12 10:15:21;;;;;;;9.50;5.00;;;;;;;18.60;41.59;98887.02;113378;1203;64483;-80
2021/04/12 10:17:54;;;;;;;8.45;4.80;;;;;;;18.45;41.66;98884.02;113325;1203;64390;-80
2021/04/12 10:20:31;;;;;;;7.75;4.90;;;;;;;18.39;42.02;98892.75;113200;1203;64503;-81
2021/04/12 10:23:01;;;;;;;6.90;4.15;;;;;;;18.40;41.19;98892.61;113174;1203;64381;-80
2021/04/12 10:25:31;;;;;;;6.17;4.20;;;;;;;18.35;42.35;98900.31;113227;1203;64484;-80
2021/04/12 10:28:26;;;;;;;7.57;4.37;;;;;;;18.47;42.46;98894.67;113258;1203;64499;-81
2021/04/12 10:31:11;;;;;;;5.13;3.90;;;;;;;18.51;42.23;98894.22;113390;1203;64394;-80
2021/04/12 10:33:54;;;;;;;6.57;4.50;;;;;;;18.51;41.80;98898.73;113389;1203;64385;-82
2021/04/12 10:36:25;;;;;;;9.70;4.40;;;;;;;18.43;42.31;98900.38;113448;1203;65947;-80
2021/04/12 10:39:04;;;;;;;7.60;4.30;;;;;;;18.38;42.32;98900.00;113367;1203;64800;-80
2021/04/12 10:41:41;;;;;;;7.25;4.33;;;;;;;18.38;42.01;98897.30;113367;1203;64359;-80
2021/04/12 10:44:25;;;;;;;6.25;4.20;;;;;;;18.42;42.41;98901.37;113432;1203;64391;-80
2021/04/12 10:47:19;;;;;;;6.40;4.00;;;;;;;18.52;41.91;98898.59;113356;1203;64385;-80
2021/04/12 10:49:51;;;;;;;6.25;4.25;;;;;;;18.61;42.00;98894.95;113348;1203;64879;-81
2021/04/12 10:52:30;;;;;;;5.90;3.40;;;;;;;18.77;42.61;98896.11;113335;1201;64352;-80
2021/04/12 10:55:05;;;;;;;5.70;4.20;;;;;;;18.98;42.49;98887.66;113455;1203;64500;-80
2021/04/12 10:58:06;;;;;;;8.93;4.37;;;;;;;19.17;42.06;98895.56;113349;1203;64407;-81
2021/04/12 11:00:56;;;;;;;4.70;4.05;;;;;;;19.19;42.26;98887.27;113455;1203;64421;-81
2021/04/12 11:03:47;;;;;;;8.80;4.40;;;;;;;19.19;42.33;98898.92;113165;1203;64362;-81
2021/04/12 11:06:36;;;;;;;5.20;4.70;;;;;;;19.12;41.77;98903.30;113268;1203;64375;-81
2021/04/12 11:09:11;;;;;;;7.95;4.40;;;;;;;19.16;41.80;98901.95;113222;1203;64384;-80
2021/04/12 11:11:57;;;;;;;8.30;4.70;;;;;;;19.08;40.53;98910.01;113173;1203;64417;-80
2021/04/12 11:14:49;;;;;;;6.70;4.60;;;;;;;18.77;40.91;98896.98;113215;1203;64427;-79
2021/04/12 11:17:24;;;;;;;6.75;4.95;;;;;;;18.59;41.15;98912.33;113141;1203;64381;-79
2021/04/12 11:20:18;;;;;;;5.60;3.95;;;;;;;18.42;41.49;98914.02;113272;1203;64640;-79
2021/04/12 11:23:06;;;;;;;6.75;5.10;;;;;;;18.18;41.36;98915.48;113404;1203;64561;-80
2021/04/12 11:25:40;;;;;;;9.10;4.50;;;;;;;18.04;41.94;98916.02;113196;1203;64321;-80
2021/04/12 11:28:35;;;;;;;6.70;5.00;;;;;;;17.84;42.12;98923.36;113170;1203;64397;-80
2021/04/12 11:31:29;;;;;;;7.75;5.45;;;;;;;17.68;42.60;98921.30;113207;1203;64423;-81
2021/04/12 11:34:17;;;;;;;6.30;4.70;;;;;;;17.68;42.81;98921.30;113143;1203;64385;-80
2021/04/12 11:36:49;;;;;;;8.40;4.47;;;;;;;17.81;42.47;98923.67;113216;1203;64394;-80
2021/04/12 11:39:30;;;;;;;9.30;4.80;;;;;;;17.99;42.30;98910.23;113363;1201;64317;-80
2021/04/12 11:42:07;;;;;;;4.50;4.10;;;;;;;18.27;42.76;98921.80;113184;1203;64378;-81
2021/04/12 11:44:36;;;;;;;6.75;4.55;;;;;;;18.43;41.84;98915.70;113253;1203;64320;-81
2021/04/12 11:47:21;;;;;;;6.03;4.63;;;;;;;18.60;42.15;98905.91;113163;1203;64347;-81
2021/04/12 11:50:05;;;;;;;5.30;3.93;;;;;;;18.89;41.99;98908.36;113344;1203;64372;-81
2021/04/12 11:52:57;;;;;;;6.03;4.20;;;;;;;18.99;41.45;98909.11;113331;1203;64403;-81
2021/04/12 11:55:38;;;;;;;9.83;4.80;;;;;;;19.05;41.99;98913.88;113229;1203;64393;-80
2021/04/12 11:58:22;;;;;;;6.50;4.60;;;;;;;19.24;41.77;98914.66;113232;1203;64471;-80
2021/04/12 12:01:18;;;;;;;9.85;8.50;;;;;;;19.49;40.93;98907.55;113271;1203;64410;-82
2021/04/12 12:03:53;;;;;;;12.27;10.33;;;;;;;19.32;41.39;98906.59;113272;1203;64647;-81
2021/04/12 12:06:48;;;;;;;15.00;11.20;;;;;;;19.42;41.00;98915.44;113472;1203;64375;-82
2021/04/12 12:09:42;;;;;;;12.10;10.40;;;;;;;19.33;41.49;98915.58;113509;1203;64433;-80
2021/04/12 12:12:24;;;;;;;11.80;9.10;;;;;;;19.13;40.82;98914.94;113406;1203;64388;-81
2021/04/12 12:15:24;;;;;;;11.40;10.25;;;;;;;18.97;41.46;98912.98;113177;1203;64553;-81
2021/04/12 12:18:18;;;;;;;13.45;11.70;;;;;;;18.98;41.18;98912.80;113434;1203;64394;-83
2021/04/12 12:20:44;;;;;;;12.40;11.10;;;;;;;18.85;41.22;98917.77;113560;1203;64407;-82
2021/04/12 12:23:23;;;;;;;12.20;10.95;;;;;;;18.68;41.69;98924.88;113401;1203;64319;-82
2021/04/12 12:25:56;;;;;;;12.65;10.10;;;;;;;18.67;41.81;98919.62;113429;1203;64394;-84
2021/04/12 12:28:54;;;;;;;11.30;10.10;;;;;;;18.59;41.96;98923.13;113369;1203;64429;-81
2021/04/12 12:31:32;;;;;;;12.10;10.83;;;;;;;18.52;42.13;98922.88;113341;1203;64478;-83
2021/04/12 12:34:14;;;;;;;12.47;11.27;;;;;;;18.47;42.13;98922.50;113296;1203;64464;-83
2021/04/12 12:36:55;;;;;;;14.57;13.07;;;;;;;18.39;42.64;98923.27;113260;1203;64289;-80
2021/04/12 12:39:35;;;;;;;15.35;13.75;;;;;;;18.41;42.75;98931.23;113221;1203;64394;-81
2021/04/12 12:42:06;;;;;;;17.80;16.00;;;;;;;18.38;43.95;98926.14;113151;1203;64516;-81
2021/04/12 12:44:35;;;;;;;18.50;16.60;;;;;;;18.36;43.70;98931.67;113204;1203;64564;-81
2021/04/12 12:47:09;;;;;;;18.77;16.83;;;;;;;18.42;43.70;98930.21;113382;1203;64399;-80
2021/04/12 12:49:44;;;;;;;17.70;15.80;;;;;;;18.24;44.12;98934.75;113248;1203;64414;-82
2021/04/12 12:52:21;;;;;;;17.30;15.70;;;;;;;18.28;44.03;98934.30;113217;1203;64349;-80
2021/04/12 12:54:52;;;;;;;16.50;14.80;;;;;;;18.35;43.94;98943.48;113338;1203;64486;-81
2021/04/12 12:57:40;;;;;;;18.20;16.30;;;;;;;18.30;43.88;98943.09;113378;1203;64417;-80
2021/04/12 13:00:33;;;;;;;18.00;16.03;;;;;;;18.35;43.91;98938.09;113384;1203;64923;-81
2021/04/12 13:03:14;;;;;;;18.05;16.25;;;;;;;18.23;43.59;98944.70;113248;1203;64397;-81
2021/04/12 13:05:43;;;;;;;18.75;16.85;;;;;;;18.21;44.26;98938.60;113344;1203;64362;-81
2021/04/12 13:08:20;;;;;;;20.30;17.60;;;;;;;18.32;44.28;98946.46;113454;1203;64356;-81
2021/04/12 13:10:50;;;;;;;20.80;17.50;;;;;;;18.46;43.91;98936.13;113502;1203;64340;-81
2021/04/12 13:13:29;;;;;;;21.60;17.80;;;;;;;18.40;43.94;98935.78;113171;1203;64397;-81
2021/04/12 13:16:09;;;;;;;19.93;14.87;;;;;;;18.42;44.67;98933.75;113287;1203;64429;-80
2021/04/12 13:18:41;;;;;;;21.70;17.80;;;;;;;18.17;45.12;98929.14;113262;1203;64439;-80
2021/04/12 13:21:23;;;;;;;31.50;20.83;;;;;;;17.71;45.49;98941.70;113208;1203;64551;-81
2021/04/12 13:23:53;;;;;;;23.20;18.80;;;;;;;17.44;46.56;98938.00;113361;1203;64430;-80
2021/04/12 13:26:22;;;;;;;21.05;18.90;;;;;;;17.40;46.55;98947.36;113402;1203;64366;-79
2021/04/12 13:28:49;;;;;;;24.55;18.80;;;;;;;17.48;46.63;98947.50;113380;1203;64432;-81
2021/04/12 13:31:51;;;;;;;22.13;19.47;;;;;;;17.52;46.98;98950.73;113320;1203;64468;-81
2021/04/12 13:34:33;;;;;;;24.80;20.90;;;;;;;17.68;46.64;98950.94;113275;1203;64455;-80
2021/04/12 13:37:09;;;;;;;24.80;21.47;;;;;;;17.43;47.23;98960.56;113351;1203;64381;-80
2021/04/12 13:39:51;;;;;;;24.20;21.70;;;;;;;17.32;47.34;98958.89;113355;1203;64803;-81
2021/04/12 13:42:24;;;;;;;22.35;20.05;;;;;;;17.52;47.49;98956.13;113172;1203;64834;-80